Time;durP1;ratioP1;P1;durP2;ratioP2;P2;SDS_P1;SDS_P2;PMS_P1;PMS_P2;Temp;Humidity;BMP_temperature;BMP_pressure;BME280_temperature;BME280_humidity;BME280_pressure;Samples;Min_cycle;Max_cycle;Signal;HPM_P1;HPM_P2
2021/06/15 00:01:53;;;;;;;19.70;17.70;;;21.80;91.30;;;;;;5091797;28;21025;-74
2021/06/15 00:04:19;;;;;;;13.30;12.10;;;21.70;91.50;;;;;;5105593;28;20203;-74
2021/06/15 00:06:45;;;;;;;12.13;11.03;;;21.70;91.50;;;;;;5110572;28;20616;-75
2021/06/15 00:09:10;;;;;;;12.80;11.70;;;21.60;91.80;;;;;;5111768;28;20614;-75
2021/06/15 00:11:37;;;;;;;12.63;11.33;;;21.60;92.00;;;;;;5108942;28;20179;-76
2021/06/15 00:14:03;;;;;;;13.23;11.70;;;21.50;92.20;;;;;;5092596;28;20181;-75
2021/06/15 00:16:29;;;;;;;12.60;11.60;;;21.50;92.50;;;;;;5092456;28;20411;-74
2021/06/15 00:18:55;;;;;;;12.13;11.03;;;21.40;92.60;;;;;;5091628;28;20418;-74
2021/06/15 00:21:20;;;;;;;12.40;11.20;;;21.40;93.00;;;;;;5092351;28;20421;-74
2021/06/15 00:23:46;;;;;;;12.83;11.67;;;21.30;93.10;;;;;;5091281;28;20309;-74
2021/06/15 00:26:12;;;;;;;12.77;11.57;;;21.30;93.00;;;;;;5092401;28;20176;-74
2021/06/15 00:28:38;;;;;;;12.80;11.50;;;21.20;93.10;;;;;;5091533;28;20191;-74
2021/06/15 00:31:04;;;;;;;12.53;11.40;;;21.20;93.40;;;;;;5092245;28;20677;-74
2021/06/15 00:33:30;;;;;;;13.07;11.73;;;21.10;93.50;;;;;;5092107;28;20240;-74
2021/06/15 00:35:55;;;;;;;12.50;11.40;;;21.10;93.70;;;;;;5091396;28;20406;-74
2021/06/15 00:38:21;;;;;;;13.57;12.43;;;21.00;93.80;;;;;;5092314;28;20403;-74
2021/06/15 00:40:47;;;;;;;13.70;12.50;;;21.00;94.00;;;;;;5105720;28;20195;-74
2021/06/15 00:43:13;;;;;;;12.90;11.80;;;20.90;94.10;;;;;;5112566;28;20242;-74
2021/06/15 00:45:38;;;;;;;12.47;11.37;;;20.90;94.20;;;;;;5113386;28;20175;-74
2021/06/15 00:48:05;;;;;;;12.07;10.87;;;20.90;94.20;;;;;;5116204;28;20531;-74
2021/06/15 00:50:31;;;;;;;12.60;11.40;;;20.80;94.60;;;;;;5116755;28;20176;-74
2021/06/15 00:52:57;;;;;;;12.40;11.17;;;20.80;94.60;;;;;;5114101;28;20436;-74
2021/06/15 00:55:25;;;;;;;13.20;11.90;;;20.70;94.60;;;;;;5116459;28;20398;-73
2021/06/15 00:57:52;;;;;;;13.00;11.80;;;20.70;94.60;;;;;;5111050;28;20851;-74
2021/06/15 01:00:19;;;;;;;14.60;12.20;;;20.50;94.60;;;;;;5102879;28;20425;-74
2021/06/15 01:02:45;;;;;;;14.63;13.00;;;20.20;94.80;;;;;;5094807;28;20997;-74
2021/06/15 01:05:13;;;;;;;21.80;12.97;;;20.00;95.40;;;;;;5115867;28;20768;-74
2021/06/15 01:07:44;;;;;;;14.17;12.03;;;19.70;95.90;;;;;;5115375;28;20401;-75
2021/06/15 01:10:16;;;;;;;14.73;13.33;;;19.50;96.50;;;;;;5116478;28;20721;-73
2021/06/15 01:13:19;;;;;;;13.60;12.40;;;19.20;97.20;;;;;;5115452;28;20409;-74
2021/06/15 01:15:50;;;;;;;13.10;11.97;;;19.10;97.70;;;;;;5113422;28;20409;-74
2021/06/15 01:18:21;;;;;;;12.50;11.30;;;19.00;98.00;;;;;;5095671;28;20795;-73
2021/06/15 01:20:51;;;;;;;13.33;12.03;;;19.00;97.90;;;;;;5109544;28;20402;-73
2021/06/15 01:23:22;;;;;;;13.57;12.27;;;19.10;98.10;;;;;;5115609;28;20566;-73
2021/06/15 01:26:06;;;;;;;13.10;11.80;;;19.20;98.50;;;;;;5115096;28;20393;-73
2021/06/15 01:28:47;;;;;;;13.50;12.20;;;19.30;98.10;;;;;;5115788;28;20746;-73
2021/06/15 01:31:16;;;;;;;12.47;11.17;;;19.40;97.90;;;;;;5115939;28;20401;-73
2021/06/15 01:33:46;;;;;;;12.67;11.47;;;19.50;98.10;;;;;;5098196;28;20854;-74
2021/06/15 01:36:15;;;;;;;12.83;11.73;;;19.60;98.10;;;;;;5095354;28;20491;-73
2021/06/15 01:38:49;;;;;;;12.40;11.17;;;19.60;98.10;;;;;;5094568;28;20791;-74
2021/06/15 01:41:20;;;;;;;12.57;11.23;;;19.70;98.00;;;;;;5095132;28;20736;-73
2021/06/15 01:43:49;;;;;;;13.30;12.00;;;19.70;97.50;;;;;;5094418;28;20445;-74
2021/06/15 01:46:19;;;;;;;14.40;12.97;;;19.60;97.20;;;;;;5093913;28;20426;-73
2021/06/15 01:49:03;;;;;;;13.53;12.40;;;19.60;97.00;;;;;;5094551;28;20418;-74
2021/06/15 01:51:31;;;;;;;13.57;12.20;;;19.60;97.20;;;;;;5095109;28;20386;-73
2021/06/15 01:54:09;;;;;;;13.20;12.10;;;19.50;97.70;;;;;;5110694;28;20558;-74
2021/06/15 01:56:39;;;;;;;14.00;12.60;;;19.60;98.20;;;;;;5114052;28;20740;-74
2021/06/15 01:59:07;;;;;;;12.77;11.57;;;19.60;98.20;;;;;;5114743;28;20433;-74
2021/06/15 02:01:42;;;;;;;14.97;13.07;;;19.60;97.90;;;;;;5113438;28;20410;-74
2021/06/15 02:04:10;;;;;;;14.17;12.77;;;19.60;97.60;;;;;;5101110;28;20453;-74
2021/06/15 02:06:36;;;;;;;13.50;12.40;;;19.60;97.40;;;;;;5094686;28;20418;-74
2021/06/15 02:09:05;;;;;;;15.80;14.20;;;19.60;97.20;;;;;;5093928;28;20847;-74
2021/06/15 02:11:32;;;;;;;13.97;12.57;;;19.60;97.30;;;;;;5095525;28;20816;-74
2021/06/15 02:14:01;;;;;;;15.07;13.70;;;19.50;97.40;;;;;;5093784;28;20434;-74
2021/06/15 02:16:28;;;;;;;13.80;12.60;;;19.50;97.60;;;;;;5094617;28;20479;-74
2021/06/15 02:18:56;;;;;;;14.03;12.83;;;19.60;97.80;;;;;;5093688;28;20414;-74
2021/06/15 02:21:24;;;;;;;13.67;12.50;;;19.60;97.80;;;;;;5095826;28;20426;-74
2021/06/15 02:23:54;;;;;;;13.60;12.50;;;19.60;97.70;;;;;;5093422;28;20473;-74
2021/06/15 02:26:22;;;;;;;14.50;13.30;;;19.60;97.80;;;;;;5112931;28;20436;-73
2021/06/15 02:28:48;;;;;;;14.23;12.93;;;19.60;97.80;;;;;;5113905;28;20454;-74
2021/06/15 02:31:25;;;;;;;14.37;12.97;;;19.60;98.00;;;;;;5114416;28;20410;-74
2021/06/15 02:33:55;;;;;;;13.83;12.50;;;19.60;97.90;;;;;;5093530;28;20179;-74
2021/06/15 02:36:29;;;;;;;14.30;12.90;;;19.60;97.60;;;;;;5093810;28;20407;-74
2021/06/15 02:39:00;;;;;;;15.80;13.13;;;19.60;97.60;;;;;;5093388;28;20418;-74
2021/06/15 02:41:29;;;;;;;14.70;13.40;;;19.60;98.00;;;;;;5094308;28;20418;-74
2021/06/15 02:44:01;;;;;;;14.43;13.20;;;19.60;98.00;;;;;;5093254;28;20458;-74
2021/06/15 02:46:29;;;;;;;14.90;13.57;;;19.60;97.90;;;;;;5105155;28;20412;-74
2021/06/15 02:48:59;;;;;;;16.30;15.00;;;19.50;97.60;;;;;;5113252;28;20446;-74
2021/06/15 02:51:35;;;;;;;15.87;14.30;;;19.50;97.70;;;;;;5114755;28;20424;-74
2021/06/15 02:54:08;;;;;;;15.03;13.70;;;19.50;97.80;;;;;;5112980;28;20437;-74
2021/06/15 02:56:38;;;;;;;16.30;14.70;;;19.40;97.90;;;;;;5114299;28;20386;-74
2021/06/15 02:59:04;;;;;;;14.33;13.13;;;19.40;97.90;;;;;;5112847;28;20410;-74
2021/06/15 03:01:30;;;;;;;16.47;14.93;;;19.40;98.20;;;;;;5113649;28;20408;-74
2021/06/15 03:03:55;;;;;;;15.20;14.00;;;19.40;98.10;;;;;;5113178;28;20207;-74
2021/06/15 03:06:21;;;;;;;16.27;14.67;;;19.30;98.20;;;;;;5102064;28;20221;-74
2021/06/15 03:08:47;;;;;;;15.53;14.30;;;19.30;98.30;;;;;;5091888;28;20560;-74
2021/06/15 03:11:19;;;;;;;15.80;14.30;;;19.20;98.40;;;;;;5093268;28;20160;-74
2021/06/15 03:13:52;;;;;;;15.73;14.20;;;19.10;98.50;;;;;;5092989;28;20176;-75
2021/06/15 03:16:22;;;;;;;15.73;14.13;;;19.10;98.60;;;;;;5093425;28;20395;-73
2021/06/15 03:19:08;;;;;;;17.23;15.13;;;19.00;98.80;;;;;;5092267;28;20472;-74
2021/06/15 03:21:42;;;;;;;16.80;15.20;;;18.90;99.00;;;;;;5106760;28;20420;-73
2021/06/15 03:24:15;;;;;;;15.10;13.80;;;18.90;99.20;;;;;;5112180;28;20483;-73
2021/06/15 03:27:02;;;;;;;15.23;13.73;;;18.90;99.40;;;;;;5113219;28;20424;-73
2021/06/15 03:29:31;;;;;;;15.60;14.10;;;19.00;99.90;;;;;;5098504;28;20418;-73
2021/06/15 03:32:01;;;;;;;19.40;14.67;;;19.00;99.90;;;;;;5093281;28;20422;-74
2021/06/15 03:34:31;;;;;;;15.77;14.30;;;19.00;99.90;;;;;;5093480;28;20476;-73
2021/06/15 03:36:58;;;;;;;17.10;14.00;;;19.00;99.90;;;;;;5092239;28;20418;-74
2021/06/15 03:39:25;;;;;;;16.67;15.00;;;19.10;99.80;;;;;;5110747;28;20870;-74
2021/06/15 03:41:53;;;;;;;15.00;13.70;;;19.10;99.50;;;;;;5111373;28;20393;-74
2021/06/15 03:44:20;;;;;;;17.40;15.67;;;19.10;99.30;;;;;;5113184;28;20949;-74
2021/06/15 03:46:51;;;;;;;16.60;15.00;;;19.10;99.00;;;;;;5112803;28;20397;-75
2021/06/15 03:49:20;;;;;;;16.43;14.77;;;19.10;99.10;;;;;;5113864;28;20401;-74
2021/06/15 03:51:54;;;;;;;16.30;14.90;;;19.10;99.00;;;;;;5109669;28;20418;-74
2021/06/15 03:54:21;;;;;;;17.60;15.90;;;19.10;99.00;;;;;;5092930;28;20414;-73
2021/06/15 03:56:49;;;;;;;17.30;15.77;;;18.90;99.40;;;;;;5092374;28;20491;-74
2021/06/15 03:59:37;;;;;;;18.53;16.63;;;18.80;99.60;;;;;;5092645;28;20920;-74
2021/06/15 04:02:07;;;;;;;17.97;16.37;;;18.70;99.80;;;;;;5091969;28;20403;-73
2021/06/15 04:04:36;;;;;;;18.20;16.57;;;18.60;99.90;;;;;;5092222;28;20442;-73
2021/06/15 04:07:03;;;;;;;16.80;15.30;;;18.60;99.90;;;;;;5092997;28;20824;-74
2021/06/15 04:09:33;;;;;;;18.47;16.87;;;18.60;99.90;;;;;;5104439;27;20469;-73
2021/06/15 04:11:59;;;;;;;16.30;14.90;;;18.70;99.90;;;;;;5092548;28;20418;-73
2021/06/15 04:14:28;;;;;;;16.83;15.40;;;18.80;99.90;;;;;;5092872;28;20399;-73
2021/06/15 04:16:55;;;;;;;16.67;15.37;;;18.80;99.90;;;;;;5100775;28;20424;-74
2021/06/15 04:19:26;;;;;;;18.30;16.60;;;18.90;99.90;;;;;;5112978;28;20425;-74
2021/06/15 04:21:54;;;;;;;17.77;16.27;;;19.00;99.90;;;;;;5112587;28;20386;-74
2021/06/15 04:24:24;;;;;;;17.43;15.80;;;19.10;99.90;;;;;;5112473;28;20545;-73
2021/06/15 04:26:51;;;;;;;19.07;17.27;;;19.10;99.90;;;;;;5112753;28;20464;-74
2021/06/15 04:29:17;;;;;;;18.63;16.50;;;19.20;99.90;;;;;;5113041;28;20405;-73
2021/06/15 04:31:45;;;;;;;18.33;16.40;;;19.20;99.90;;;;;;5113107;28;20421;-74
2021/06/15 04:34:12;;;;;;;18.70;16.80;;;19.30;99.90;;;;;;5110624;28;20420;-73
2021/06/15 04:36:39;;;;;;;19.23;17.33;;;19.40;99.90;;;;;;5112697;28;20409;-73
2021/06/15 04:39:20;;;;;;;19.50;17.70;;;19.40;99.90;;;;;;5112308;28;20407;-74
2021/06/15 04:42:00;;;;;;;18.97;17.10;;;19.50;99.90;;;;;;5113085;28;20402;-73
2021/06/15 04:44:47;;;;;;;23.73;21.43;;;19.60;99.90;;;;;;5113119;28;20463;-74
2021/06/15 04:47:24;;;;;;;30.07;22.50;;;19.80;99.90;;;;;;5113016;28;20865;-74
2021/06/15 04:50:19;;;;;;;23.23;20.87;;;19.80;99.90;;;;;;5110520;28;20543;-74
2021/06/15 04:52:47;;;;;;;22.13;19.93;;;19.90;99.90;;;;;;5112921;28;20458;-74
2021/06/15 04:55:14;;;;;;;23.90;20.57;;;20.00;99.90;;;;;;5112411;28;20400;-74
2021/06/15 04:57:43;;;;;;;22.00;19.93;;;20.10;99.90;;;;;;5112798;28;20412;-73
2021/06/15 05:00:09;;;;;;;21.80;19.70;;;20.20;99.90;;;;;;5110382;28;20445;-74
2021/06/15 05:02:38;;;;;;;23.23;21.17;;;20.30;99.90;;;;;;5094516;28;20423;-74
2021/06/15 05:05:06;;;;;;;22.80;20.50;;;20.30;99.90;;;;;;5091981;28;20519;-74
2021/06/15 05:07:31;;;;;;;24.37;19.30;;;20.40;99.90;;;;;;5092286;28;20752;-74
2021/06/15 05:10:00;;;;;;;22.60;20.30;;;20.40;99.90;;;;;;5092456;28;20420;-74
2021/06/15 05:12:38;;;;;;;19.67;17.93;;;20.50;99.90;;;;;;5092225;28;20180;-73
2021/06/15 05:15:13;;;;;;;22.37;19.97;;;20.50;99.90;;;;;;5110198;28;20417;-73
2021/06/15 05:17:46;;;;;;;24.37;22.00;;;20.60;99.90;;;;;;5112659;28;20420;-73
2021/06/15 05:20:13;;;;;;;24.43;21.27;;;20.60;99.90;;;;;;5110255;28;20421;-73
2021/06/15 05:22:45;;;;;;;23.30;21.20;;;20.60;99.90;;;;;;5112316;28;20834;-73
2021/06/15 05:25:14;;;;;;;23.00;20.40;;;20.60;99.90;;;;;;5111885;28;20452;-73
2021/06/15 05:27:40;;;;;;;22.87;20.80;;;20.60;99.90;;;;;;5111835;28;20727;-73
2021/06/15 05:30:07;;;;;;;26.50;22.87;;;20.70;99.90;;;;;;5109160;28;20436;-73
2021/06/15 05:32:32;;;;;;;28.33;21.97;;;20.60;99.90;;;;;;5115790;28;20191;-73
2021/06/15 05:34:59;;;;;;;26.20;23.53;;;20.40;99.90;;;;;;5115548;28;20410;-73
2021/06/15 05:37:25;;;;;;;25.63;23.10;;;20.40;99.90;;;;;;5114050;28;20176;-73
2021/06/15 05:39:51;;;;;;;23.73;21.43;;;20.30;99.90;;;;;;5098228;28;20441;-74
2021/06/15 05:42:17;;;;;;;24.93;22.43;;;20.30;99.90;;;;;;5095536;28;20394;-73
2021/06/15 05:44:43;;;;;;;27.80;25.07;;;20.20;99.90;;;;;;5095463;28;20876;-73
2021/06/15 05:47:09;;;;;;;27.17;24.43;;;20.10;99.90;;;;;;5094839;28;20410;-73
2021/06/15 05:49:35;;;;;;;28.00;25.20;;;20.10;99.90;;;;;;5095333;28;20180;-73
2021/06/15 05:52:07;;;;;;;28.87;25.97;;;20.10;99.90;;;;;;5094699;28;20796;-73
2021/06/15 05:54:34;;;;;;;28.50;25.60;;;20.00;99.90;;;;;;5094749;28;20176;-73
2021/06/15 05:56:59;;;;;;;25.30;22.90;;;20.00;99.90;;;;;;5107254;28;20422;-73
2021/06/15 05:59:25;;;;;;;27.83;25.20;;;20.00;99.90;;;;;;5114430;28;20420;-73
2021/06/15 06:01:52;;;;;;;28.33;25.30;;;20.00;99.90;;;;;;5101791;28;20173;-73
2021/06/15 06:04:24;;;;;;;28.43;25.60;;;20.00;99.90;;;;;;5095151;28;20212;-73
2021/06/15 06:09:38;;;;;;;27.67;24.80;;;19.80;99.90;;;;;;5098479;28;20413;-73
2021/06/15 06:12:05;;;;;;;27.20;24.40;;;19.80;99.90;;;;;;5094665;28;20425;-73
2021/06/15 06:14:31;;;;;;;29.07;26.17;;;19.80;99.90;;;;;;5095049;28;20888;-73
2021/06/15 06:16:57;;;;;;;38.07;33.90;;;19.70;99.90;;;;;;5093173;28;20410;-73
2021/06/15 06:19:23;;;;;;;28.43;25.60;;;19.80;99.90;;;;;;5096016;28;20274;-73
2021/06/15 06:21:49;;;;;;;24.50;22.13;;;19.80;99.90;;;;;;5095599;28;20497;-73
2021/06/15 06:24:17;;;;;;;24.90;22.50;;;20.00;99.90;;;;;;5108855;28;20235;-74
2021/06/15 06:26:46;;;;;;;21.27;19.33;;;20.10;99.90;;;;;;5094724;28;20505;-74
2021/06/15 06:29:12;;;;;;;22.47;20.47;;;20.30;99.90;;;;;;5101607;28;20453;-74
2021/06/15 06:31:38;;;;;;;23.00;20.87;;;20.40;99.90;;;;;;5115038;28;20455;-74
2021/06/15 06:34:04;;;;;;;23.93;21.33;;;20.60;99.90;;;;;;5114407;28;20409;-74
2021/06/15 06:36:29;;;;;;;27.77;25.13;;;20.70;99.90;;;;;;5115117;28;20227;-85
2021/06/15 06:38:55;;;;;;;27.87;25.07;;;20.90;99.90;;;;;;5113337;28;20619;-83
2021/06/15 06:41:21;;;;;;;33.17;29.60;;;20.90;99.90;;;;;;5095312;28;20576;-86
2021/06/15 06:43:47;;;;;;;26.63;24.03;;;20.80;99.90;;;;;;5094378;28;20223;-87
2021/06/15 06:46:13;;;;;;;27.80;25.10;;;20.90;99.90;;;;;;5095652;28;20548;-86
2021/06/15 06:48:39;;;;;;;25.40;22.80;;;20.90;99.90;;;;;;5105587;28;20891;-87
2021/06/15 06:51:05;;;;;;;26.43;23.77;;;20.90;99.90;;;;;;5093657;28;20554;-87
2021/06/15 06:53:35;;;;;;;29.40;26.43;;;20.90;99.90;;;;;;5105926;28;20180;-87
2021/06/15 06:56:00;;;;;;;24.43;21.97;;;20.90;99.90;;;;;;5114042;28;20172;-86
2021/06/15 06:58:26;;;;;;;26.37;23.23;;;20.90;99.90;;;;;;5114599;28;20397;-87
2021/06/15 07:00:52;;;;;;;28.43;25.90;;;21.00;99.90;;;;;;5114447;28;20684;-88
2021/06/15 07:03:18;;;;;;;27.90;24.90;;;21.10;99.90;;;;;;5113755;28;20552;-87
2021/06/15 07:05:44;;;;;;;28.90;26.07;;;21.20;99.90;;;;;;5101517;28;20180;-89
2021/06/15 07:08:09;;;;;;;26.77;24.07;;;21.20;99.90;;;;;;5092919;28;20177;-89
2021/06/15 07:10:35;;;;;;;27.80;24.93;;;21.30;99.90;;;;;;5094047;28;20172;-89
2021/06/15 07:13:02;;;;;;;26.57;23.70;;;21.40;99.90;;;;;;5093539;28;20275;-87
2021/06/15 07:15:29;;;;;;;26.40;23.90;;;21.60;99.90;;;;;;5114233;28;20441;-76
2021/06/15 07:17:55;;;;;;;28.00;25.17;;;21.70;99.90;;;;;;5114207;28;20789;-76
2021/06/15 07:20:20;;;;;;;23.97;21.67;;;21.70;99.80;;;;;;5112564;28;20405;-76
2021/06/15 07:22:46;;;;;;;25.10;22.43;;;21.80;99.90;;;;;;5093679;28;20522;-76
2021/06/15 07:25:13;;;;;;;24.73;22.33;;;22.00;99.90;;;;;;5093131;28;20256;-76
2021/06/15 07:27:39;;;;;;;19.60;17.70;;;22.20;99.90;;;;;;5093583;28;20452;-75
2021/06/15 07:30:07;;;;;;;24.40;22.00;;;22.30;99.90;;;;;;5092948;28;20762;-76
2021/06/15 07:32:33;;;;;;;25.23;21.93;;;22.50;99.90;;;;;;5111786;28;20410;-76
2021/06/15 07:34:58;;;;;;;23.37;20.87;;;22.70;99.90;;;;;;5111553;28;20439;-76
2021/06/15 07:37:24;;;;;;;24.27;21.87;;;22.90;99.30;;;;;;5113795;28;20253;-76
2021/06/15 07:39:50;;;;;;;25.50;22.93;;;23.00;98.30;;;;;;5113770;28;20171;-76
2021/06/15 07:42:16;;;;;;;21.37;19.20;;;23.10;98.20;;;;;;5113050;28;20191;-76
2021/06/15 07:44:42;;;;;;;19.53;17.43;;;23.30;98.60;;;;;;5110114;28;20480;-76
2021/06/15 07:47:08;;;;;;;23.90;21.60;;;23.30;97.80;;;;;;5091450;28;20225;-76
2021/06/15 07:49:34;;;;;;;23.50;20.37;;;23.50;97.50;;;;;;5093234;28;20820;-76
2021/06/15 07:52:00;;;;;;;23.10;20.83;;;23.50;96.60;;;;;;5092544;28;20405;-76
2021/06/15 07:54:26;;;;;;;23.53;21.30;;;23.40;96.40;;;;;;5095714;28;20183;-76
2021/06/15 07:56:51;;;;;;;24.40;22.20;;;23.50;96.90;;;;;;5109494;28;20430;-77
2021/06/15 07:59:17;;;;;;;22.10;20.00;;;23.50;96.70;;;;;;5112760;28;20214;-76
2021/06/15 08:01:43;;;;;;;25.73;23.20;;;23.60;97.00;;;;;;5107469;28;20175;-76
2021/06/15 08:04:13;;;;;;;23.20;20.80;;;23.80;97.30;;;;;;5099307;28;20235;-76
2021/06/15 08:06:39;;;;;;;22.17;20.10;;;23.90;97.60;;;;;;5107356;28;20164;-76
2021/06/15 08:09:05;;;;;;;28.20;19.03;;;24.00;96.10;;;;;;5097022;28;20504;-75
2021/06/15 08:11:31;;;;;;;21.50;19.50;;;24.10;95.80;;;;;;5104646;28;20186;-76
2021/06/15 08:13:56;;;;;;;13.10;11.90;;;24.20;95.90;;;;;;5112952;28;20232;-77
2021/06/15 08:16:23;;;;;;;22.67;20.30;;;24.20;96.20;;;;;;5112040;28;20179;-76
2021/06/15 08:18:49;;;;;;;16.90;15.30;;;24.20;95.10;;;;;;5112754;28;20251;-77
2021/06/15 08:21:15;;;;;;;17.13;15.33;;;24.10;95.50;;;;;;5112436;28;20432;-77
2021/06/15 08:23:41;;;;;;;21.17;19.03;;;24.20;95.60;;;;;;5112883;28;20283;-76
2021/06/15 08:26:07;;;;;;;19.30;17.40;;;24.20;94.70;;;;;;5112420;28;20448;-77
2021/06/15 08:28:33;;;;;;;17.37;15.77;;;24.30;94.40;;;;;;5113022;28;20422;-76
2021/06/15 08:30:59;;;;;;;19.00;17.40;;;24.40;94.40;;;;;;5112697;28;20258;-76
2021/06/15 08:33:25;;;;;;;25.60;23.27;;;24.40;93.90;;;;;;5094347;28;20179;-77
2021/06/15 08:35:52;;;;;;;25.80;23.23;;;24.50;93.90;;;;;;5113322;28;20416;-77
2021/06/15 08:38:18;;;;;;;55.40;47.37;;;24.60;93.60;;;;;;5112341;28;20408;-77
2021/06/15 08:40:49;;;;;;;40.17;35.80;;;24.70;93.50;;;;;;5113005;28;20437;-76
2021/06/15 08:43:15;;;;;;;43.33;37.47;;;24.80;93.10;;;;;;5112268;28;20386;-76
2021/06/15 08:45:41;;;;;;;22.10;20.13;;;24.90;92.90;;;;;;5112885;28;20493;-76
2021/06/15 08:48:08;;;;;;;30.17;26.90;;;24.80;92.30;;;;;;5111959;28;20416;-77
2021/06/15 08:50:34;;;;;;;51.00;45.17;;;24.90;92.50;;;;;;5112850;28;20410;-76
2021/06/15 08:53:00;;;;;;;41.23;36.90;;;24.90;92.20;;;;;;5112792;28;20504;-77
2021/06/15 08:55:30;;;;;;;36.43;32.80;;;24.90;92.20;;;;;;5111877;28;20409;-77
2021/06/15 08:58:07;;;;;;;25.40;22.80;;;24.90;91.50;;;;;;5112819;28;20417;-77
2021/06/15 09:00:33;;;;;;;21.73;19.73;;;25.00;91.50;;;;;;5113142;28;20446;-77
2021/06/15 09:02:58;;;;;;;18.03;16.37;;;25.00;91.00;;;;;;5112637;28;20791;-77
2021/06/15 09:05:25;;;;;;;30.97;27.87;;;25.00;90.70;;;;;;5112075;28;20215;-77
2021/06/15 09:08:10;;;;;;;24.90;22.30;;;25.00;90.90;;;;;;5116702;28;20168;-77
2021/06/15 09:10:38;;;;;;;23.33;20.93;;;25.00;90.80;;;;;;5116715;28;20416;-77
2021/06/15 09:13:05;;;;;;;29.23;25.50;;;25.10;90.90;;;;;;5116100;28;20412;-77
2021/06/15 09:15:31;;;;;;;32.43;29.17;;;25.20;90.70;;;;;;5116602;28;20486;-77
2021/06/15 09:17:58;;;;;;;31.60;28.30;;;25.20;90.70;;;;;;5116271;28;20405;-76
2021/06/15 09:20:31;;;;;;;27.50;24.80;;;25.20;90.50;;;;;;5115814;28;20428;-77
2021/06/15 09:23:09;;;;;;;28.77;25.87;;;25.20;91.10;;;;;;5116133;28;20465;-77
2021/06/15 09:25:35;;;;;;;59.03;51.50;;;25.00;90.60;;;;;;5116237;28;20421;-76
2021/06/15 09:28:20;;;;;;;23.10;20.73;;;24.90;91.00;;;;;;5116351;28;20413;-77
2021/06/15 09:31:03;;;;;;;38.63;32.93;;;24.90;92.00;;;;;;5116134;28;20742;-77
2021/06/15 09:33:43;;;;;;;31.27;27.57;;;24.90;91.80;;;;;;5115616;28;20414;-77
2021/06/15 09:36:15;;;;;;;29.20;25.77;;;25.10;93.00;;;;;;5115312;28;20803;-77
2021/06/15 09:39:01;;;;;;;27.80;24.80;;;25.20;91.40;;;;;;5116105;28;20406;-77
2021/06/15 09:41:45;;;;;;;22.53;20.33;;;25.30;90.60;;;;;;5115399;28;20400;-77
2021/06/15 09:44:21;;;;;;;44.13;38.97;;;25.30;90.40;;;;;;5115416;28;20452;-77
2021/06/15 09:47:09;;;;;;;103.80;92.53;;;25.40;90.80;;;;;;5114875;28;20598;-78
2021/06/15 09:49:40;;;;;;;62.83;54.70;;;25.60;92.80;;;;;;5115266;28;20452;-79
2021/06/15 09:52:29;;;;;;;34.43;30.77;;;25.80;92.10;;;;;;5115306;28;20787;-78
2021/06/15 09:55:04;;;;;;;31.87;27.20;;;25.60;91.00;;;;;;5115809;28;20441;-78
2021/06/15 09:57:37;;;;;;;30.93;27.93;;;25.60;90.70;;;;;;5115056;28;20433;-78
2021/06/15 10:00:21;;;;;;;31.00;27.83;;;25.70;91.40;;;;;;5115717;28;20398;-78
2021/06/15 10:02:54;;;;;;;26.70;24.40;;;25.70;90.80;;;;;;5114365;28;20503;-79
2021/06/15 10:05:30;;;;;;;28.60;25.70;;;25.90;90.10;;;;;;5114657;28;20444;-78
2021/06/15 10:08:03;;;;;;;19.23;17.43;;;26.00;90.50;;;;;;5115624;28;20398;-78
2021/06/15 10:10:34;;;;;;;15.30;14.07;;;26.10;90.40;;;;;;5114966;28;20459;-79
2021/06/15 10:13:00;;;;;;;14.87;13.67;;;26.40;90.20;;;;;;5115453;28;20413;-79
2021/06/15 10:15:27;;;;;;;15.43;13.93;;;26.60;90.20;;;;;;5114839;28;20409;-79
2021/06/15 10:17:54;;;;;;;16.73;15.40;;;26.80;85.00;;;;;;5114991;28;20429;-79
2021/06/15 10:20:23;;;;;;;16.67;15.40;;;26.80;83.20;;;;;;5114685;28;20750;-79
2021/06/15 10:22:50;;;;;;;13.40;12.30;;;26.80;84.80;;;;;;5115143;28;20476;-78
2021/06/15 10:25:18;;;;;;;14.20;13.10;;;27.00;84.60;;;;;;5114613;28;20433;-78
2021/06/15 10:27:45;;;;;;;14.80;13.33;;;27.20;90.00;;;;;;5115125;28;20417;-79
2021/06/15 10:30:12;;;;;;;15.60;14.23;;;27.40;88.30;;;;;;5114210;28;20441;-77
2021/06/15 10:32:56;;;;;;;14.23;13.00;;;27.50;86.80;;;;;;5115030;28;20401;-79
2021/06/15 10:35:44;;;;;;;16.30;15.07;;;27.70;83.70;;;;;;5114190;28;20410;-78
2021/06/15 10:38:15;;;;;;;15.50;14.10;;;27.80;85.20;;;;;;5114353;28;20402;-78
2021/06/15 10:40:45;;;;;;;14.60;13.30;;;28.00;82.10;;;;;;5114889;28;20461;-79
2021/06/15 10:43:22;;;;;;;16.87;15.47;;;27.90;81.50;;;;;;5113992;28;20425;-79
2021/06/15 10:45:58;;;;;;;16.53;15.23;;;27.90;81.80;;;;;;5113193;28;20400;-79
2021/06/15 10:48:28;;;;;;;19.10;17.33;;;27.70;79.20;;;;;;5113660;28;20397;-77
2021/06/15 10:50:55;;;;;;;18.63;17.27;;;27.60;80.90;;;;;;5114587;28;20875;-77
2021/06/15 10:53:39;;;;;;;16.47;15.07;;;27.60;84.20;;;;;;5114154;28;20406;-78
2021/06/15 10:56:15;;;;;;;16.70;15.10;;;27.80;85.80;;;;;;5114723;28;20735;-78
2021/06/15 10:58:44;;;;;;;20.57;18.97;;;27.70;82.70;;;;;;5114775;28;20404;-77
2021/06/15 11:01:13;;;;;;;74.00;66.87;;;27.70;83.40;;;;;;5113928;28;20406;-77
2021/06/15 11:03:45;;;;;;;34.77;31.60;;;27.50;79.90;;;;;;5114504;28;20484;-78
2021/06/15 11:06:11;;;;;;;28.23;25.77;;;27.20;80.00;;;;;;5113766;28;20728;-77
2021/06/15 11:08:38;;;;;;;22.00;20.03;;;26.70;80.40;;;;;;5114352;28;20404;-77
2021/06/15 11:11:17;;;;;;;18.10;16.50;;;26.30;81.30;;;;;;5114297;28;20416;-77
2021/06/15 11:13:51;;;;;;;17.93;16.43;;;25.90;82.20;;;;;;5113902;28;20492;-78
2021/06/15 11:16:45;;;;;;;14.40;13.23;;;25.80;83.10;;;;;;5113102;28;20413;-77
2021/06/15 11:19:12;;;;;;;15.73;14.13;;;25.80;83.40;;;;;;5113650;28;20857;-77
2021/06/15 11:21:55;;;;;;;14.50;13.10;;;25.80;83.80;;;;;;5114060;28;20810;-77
2021/06/15 11:24:25;;;;;;;14.27;13.17;;;25.60;83.20;;;;;;5113291;28;20465;-77
2021/06/15 11:27:01;;;;;;;15.13;13.57;;;25.40;83.10;;;;;;5114382;28;20481;-77
2021/06/15 11:29:36;;;;;;;12.40;11.43;;;25.30;83.30;;;;;;5112653;28;20836;-77
2021/06/15 11:32:14;;;;;;;14.70;13.40;;;25.10;83.40;;;;;;5113984;28;20941;-77
2021/06/15 11:34:58;;;;;;;14.17;12.97;;;25.20;84.00;;;;;;5113736;28;20425;-77
2021/06/15 11:37:29;;;;;;;15.00;13.60;;;25.40;84.40;;;;;;5113336;28;20393;-77
2021/06/15 11:40:16;;;;;;;13.97;12.57;;;25.50;84.50;;;;;;5114045;28;20443;-77
2021/06/15 11:43:12;;;;;;;15.20;13.90;;;25.50;84.00;;;;;;5113804;28;20393;-77
2021/06/15 11:45:37;;;;;;;14.70;13.27;;;25.40;83.80;;;;;;5100038;28;20432;-77
2021/06/15 11:48:31;;;;;;;16.23;14.83;;;25.50;84.90;;;;;;5113624;28;20872;-77
2021/06/15 11:51:01;;;;;;;14.90;13.70;;;25.60;83.70;;;;;;5112240;28;20186;-77
2021/06/15 11:53:30;;;;;;;15.20;13.83;;;25.60;82.70;;;;;;5112976;28;20466;-76
2021/06/15 11:56:02;;;;;;;26.13;14.00;;;25.50;81.90;;;;;;5113523;28;20402;-76
2021/06/15 11:58:34;;;;;;;13.50;12.20;;;25.30;82.40;;;;;;5112885;28;20425;-76
2021/06/15 12:01:10;;;;;;;15.87;14.57;;;25.20;82.50;;;;;;5113350;28;20811;-75
2021/06/15 12:03:38;;;;;;;15.87;14.67;;;25.30;81.70;;;;;;5112598;28;20500;-77
2021/06/15 12:06:05;;;;;;;52.37;47.17;;;25.30;82.50;;;;;;5112720;28;20919;-76
2021/06/15 12:08:40;;;;;;;26.73;24.33;;;25.30;83.50;;;;;;5111319;28;20430;-77
2021/06/15 12:11:10;;;;;;;18.50;16.77;;;25.40;82.10;;;;;;5113379;28;20507;-76
2021/06/15 12:13:37;;;;;;;14.97;13.77;;;25.30;81.50;;;;;;5112628;28;20443;-77
2021/06/15 12:16:04;;;;;;;13.40;12.07;;;25.30;81.10;;;;;;5113343;28;20412;-77
2021/06/15 12:18:42;;;;;;;11.33;10.53;;;25.30;80.60;;;;;;5112416;28;20405;-77
2021/06/15 12:21:14;;;;;;;13.67;12.50;;;25.20;80.30;;;;;;5113093;28;20746;-77
2021/06/15 12:23:58;;;;;;;11.23;10.33;;;25.30;80.90;;;;;;5112761;28;20564;-77
2021/06/15 12:26:52;;;;;;;11.63;10.83;;;25.20;82.20;;;;;;5112543;28;20425;-76
2021/06/15 12:29:18;;;;;;;10.70;9.90;;;25.30;80.80;;;;;;5110641;28;21000;-76
2021/06/15 12:31:49;;;;;;;10.17;9.20;;;25.40;79.00;;;;;;5113064;28;20405;-76
2021/06/15 12:34:18;;;;;;;10.20;9.40;;;25.30;79.80;;;;;;5112761;28;20408;-76
2021/06/15 12:36:46;;;;;;;9.63;8.83;;;25.30;80.00;;;;;;5113281;28;20500;-76
2021/06/15 12:39:16;;;;;;;9.77;8.83;;;25.20;80.00;;;;;;5112968;28;20412;-77
2021/06/15 12:41:51;;;;;;;9.83;9.07;;;25.10;79.20;;;;;;5117321;28;20439;-77
2021/06/15 12:44:17;;;;;;;10.40;8.40;;;25.20;80.60;;;;;;5116574;28;20931;-77
2021/06/15 12:46:44;;;;;;;7.57;6.97;;;25.20;80.50;;;;;;5116835;28;20466;-78